createdAt,value
2019-06-20T06:00:32.190Z,392.00
2019-06-20T06:01:32.156Z,396.00
2019-06-20T06:02:32.125Z,380.00
2019-06-20T06:03:32.145Z,376.00
2019-06-20T06:04:32.087Z,404.00
2019-06-20T06:05:32.144Z,436.00
2019-06-20T06:06:32.065Z,448.00
2019-06-20T06:07:34.786Z,468.00
2019-06-20T06:08:32.081Z,508.00
2019-06-20T06:09:32.057Z,548.00
2019-06-20T06:10:32.024Z,576.00
2019-06-20T06:11:32.026Z,580.00
2019-06-20T06:12:39.548Z,596.00
2019-06-20T06:13:32.054Z,608.00
2019-06-20T06:14:31.975Z,620.00
2019-06-20T06:15:39.523Z,616.00
2019-06-20T06:16:31.956Z,596.00
2019-06-20T06:17:39.494Z,576.00
2019-06-20T06:18:31.958Z,572.00
2019-06-20T06:19:31.953Z,576.00
2019-06-20T06:20:31.912Z,588.00
2019-06-20T06:21:31.934Z,592.00
2019-06-20T06:22:31.891Z,584.00
2019-06-20T06:23:31.934Z,576.00
2019-06-20T06:24:31.870Z,576.00
2019-06-20T06:25:31.947Z,568.00
2019-06-20T06:26:31.925Z,600.00
2019-06-20T06:27:31.870Z,524.00
2019-06-20T06:28:31.833Z,488.00
2019-06-20T06:29:31.847Z,512.00
2019-06-20T06:30:31.806Z,440.00
2019-06-20T06:31:33.419Z,428.00
2019-06-20T06:32:39.926Z,440.00
2019-06-20T06:33:32.772Z,476.00
2019-06-20T06:34:33.233Z,480.00
2019-06-20T06:35:31.794Z,508.00
2019-06-20T06:36:31.783Z,552.00
2019-06-20T06:37:31.728Z,596.00
2019-06-20T06:38:31.732Z,684.00
2019-06-20T06:39:31.757Z,740.00
2019-06-20T06:40:31.698Z,796.00
2019-06-20T06:41:31.710Z,880.00
2019-06-20T06:42:31.719Z,896.00
2019-06-20T06:43:31.667Z,924.00
2019-06-20T06:44:31.931Z,936.00
2019-06-20T06:45:31.653Z,896.00
2019-06-20T06:46:43.727Z,904.00
2019-06-20T06:47:32.629Z,836.00
2019-06-20T06:48:31.638Z,800.00
2019-06-20T06:49:31.634Z,768.00
2019-06-20T06:50:31.607Z,772.00
2019-06-20T06:51:31.584Z,804.00
2019-06-20T06:52:31.571Z,828.00
2019-06-20T06:53:31.610Z,840.00
2019-06-20T06:54:31.552Z,844.00
2019-06-20T06:55:31.625Z,848.00
2019-06-20T06:56:31.588Z,840.00
2019-06-20T06:57:31.517Z,868.00
2019-06-20T06:58:31.505Z,928.00
2019-06-20T06:59:31.496Z,924.00
2019-06-20T07:00:31.505Z,888.00
2019-06-20T07:01:31.502Z,924.00
2019-06-20T07:02:31.485Z,912.00
2019-06-20T07:03:31.451Z,852.00
2019-06-20T07:04:31.495Z,868.00
2019-06-20T07:05:31.431Z,864.00
2019-06-20T07:06:31.432Z,872.00
2019-06-20T07:07:31.419Z,884.00
2019-06-20T07:08:31.398Z,884.00
2019-06-20T07:09:31.443Z,916.00
2019-06-20T07:10:31.406Z,900.00
2019-06-20T07:11:31.368Z,912.00
2019-06-20T07:12:31.359Z,956.00
2019-06-20T07:13:31.360Z,1004.00
2019-06-20T07:14:31.369Z,996.00
2019-06-20T07:15:31.323Z,1012.00
2019-06-20T07:16:31.316Z,1004.00
2019-06-20T07:17:31.307Z,1000.00
2019-06-20T07:18:31.345Z,1000.00
2019-06-20T07:19:31.327Z,1032.00
2019-06-20T07:20:31.321Z,1076.00
2019-06-20T07:21:31.277Z,1100.00
2019-06-20T07:22:31.248Z,1172.00
2019-06-20T07:23:31.265Z,1196.00
2019-06-20T07:24:31.257Z,1240.00
2019-06-20T07:25:31.224Z,1240.00
2019-06-20T07:26:31.210Z,1224.00
2019-06-20T07:27:31.200Z,1116.00
2019-06-20T07:28:31.248Z,1048.00
2019-06-20T07:29:31.191Z,980.00
2019-06-20T07:30:31.215Z,1052.00
2019-06-20T07:31:31.154Z,1064.00
2019-06-20T07:32:31.160Z,1064.00
2019-06-20T07:33:31.137Z,1060.00
2019-06-20T07:34:31.830Z,1040.00
2019-06-20T07:35:31.162Z,1080.00
2019-06-20T07:36:31.120Z,1100.00
2019-06-20T07:37:31.090Z,1120.00
2019-06-20T07:38:31.114Z,1036.00
2019-06-20T07:39:31.070Z,1144.00
2019-06-20T07:40:31.089Z,1404.00
2019-06-20T07:41:31.050Z,1408.00
2019-06-20T07:42:31.041Z,1444.00
2019-06-20T07:43:31.067Z,1436.00
2019-06-20T07:44:31.021Z,1444.00
2019-06-20T07:45:31.057Z,1504.00
2019-06-20T07:46:30.994Z,1456.00
2019-06-20T07:47:30.987Z,1456.00
2019-06-20T07:48:30.979Z,1404.00
2019-06-20T07:49:30.999Z,1244.00
2019-06-20T07:50:30.963Z,1040.00
2019-06-20T07:51:31.003Z,1196.00
2019-06-20T07:52:30.937Z,1172.00
2019-06-20T07:53:31.016Z,1420.00
2019-06-20T07:54:30.943Z,1512.00
2019-06-20T07:55:30.908Z,1460.00
2019-06-20T07:56:30.922Z,1544.00
2019-06-20T07:57:30.878Z,1516.00
2019-06-20T07:58:30.882Z,1544.00
2019-06-20T07:59:30.893Z,1496.00
2019-06-20T08:00:30.887Z,1432.00
2019-06-20T08:01:30.854Z,1552.00
2019-06-20T08:02:30.828Z,1544.00
2019-06-20T08:03:30.838Z,1524.00
2019-06-20T08:04:30.842Z,1216.00
2019-06-20T08:05:30.811Z,1248.00
2019-06-20T08:06:30.827Z,1320.00
2019-06-20T08:07:30.780Z,1264.00
2019-06-20T08:08:30.765Z,1236.00
2019-06-20T08:09:44.321Z,1256.00
2019-06-20T08:10:31.768Z,1260.00
2019-06-20T08:11:30.738Z,1288.00
2019-06-20T08:12:30.766Z,1268.00
2019-06-20T08:13:30.711Z,1444.00
2019-06-20T08:14:30.695Z,1440.00
2019-06-20T08:15:30.718Z,1288.00
2019-06-20T08:16:30.691Z,1316.00
2019-06-20T08:17:35.267Z,1508.00
2019-06-20T08:18:31.658Z,1368.00
2019-06-20T08:19:30.635Z,1580.00
2019-06-20T08:20:30.716Z,1428.00
2019-06-20T08:21:30.641Z,1320.00
2019-06-20T08:22:30.620Z,1200.00
2019-06-20T08:23:30.623Z,1156.00
2019-06-20T08:24:30.593Z,1156.00
2019-06-20T08:25:30.670Z,1132.00
2019-06-20T08:26:30.566Z,1188.00
2019-06-20T08:27:30.584Z,1220.00
2019-06-20T08:28:30.542Z,1224.00
2019-06-20T08:29:30.535Z,1204.00
2019-06-20T08:30:30.552Z,1176.00
2019-06-20T08:31:30.558Z,1156.00
2019-06-20T08:32:30.504Z,1064.00
2019-06-20T08:33:30.533Z,1252.00
2019-06-20T08:34:30.476Z,1152.00
2019-06-20T08:35:30.463Z,1064.00
2019-06-20T08:36:30.459Z,1076.00
2019-06-20T08:37:30.453Z,1272.00
2019-06-20T08:38:30.481Z,1144.00
2019-06-20T08:39:30.430Z,1256.00
2019-06-20T08:40:30.411Z,1040.00
2019-06-20T08:41:30.678Z,1112.00
2019-06-20T08:42:30.440Z,1024.00
2019-06-20T08:43:30.426Z,1276.00
2019-06-20T08:44:30.400Z,968.00
2019-06-20T08:45:30.513Z,1432.00
2019-06-20T08:46:30.368Z,1200.00
2019-06-20T08:47:30.393Z,1260.00
2019-06-20T08:48:30.366Z,1428.00
2019-06-20T08:49:30.352Z,1220.00
2019-06-20T08:50:30.301Z,1460.00
2019-06-20T08:51:30.321Z,1204.00
2019-06-20T08:52:30.279Z,1636.00
2019-06-20T08:53:30.310Z,1416.00
2019-06-20T08:54:30.259Z,1516.00
2019-06-20T08:55:30.255Z,1360.00
2019-06-20T08:56:30.262Z,1548.00
2019-06-20T08:57:30.237Z,1344.00
2019-06-20T08:58:30.275Z,1732.00
2019-06-20T08:59:30.209Z,1456.00
2019-06-20T09:00:30.221Z,1444.00
2019-06-20T09:01:30.193Z,1496.00
2019-06-20T09:02:30.180Z,1424.00
2019-06-20T09:03:30.239Z,1504.00
2019-06-20T09:04:30.186Z,1732.00
2019-06-20T09:05:30.928Z,1624.00
2019-06-20T09:06:30.150Z,1760.00
2019-06-20T09:07:30.122Z,1760.00
2019-06-20T09:08:30.165Z,1728.00
2019-06-20T09:09:30.094Z,1672.00
2019-06-20T09:10:30.104Z,1456.00
2019-06-20T09:11:30.095Z,1800.00
2019-06-20T09:12:30.087Z,1876.00
2019-06-20T09:13:30.076Z,1744.00
2019-06-20T09:14:30.099Z,1692.00
2019-06-20T09:15:30.035Z,1396.00
2019-06-20T09:16:30.022Z,1256.00
2019-06-20T09:17:30.014Z,1180.00
2019-06-20T09:18:30.020Z,1160.00
2019-06-20T09:19:30.491Z,1188.00
2019-06-20T09:20:29.976Z,1216.00
2019-06-20T09:21:29.968Z,1216.00
2019-06-20T09:22:29.962Z,1220.00
2019-06-20T09:23:29.944Z,1204.00
2019-06-20T09:24:29.979Z,1220.00
2019-06-20T09:25:29.926Z,1232.00
2019-06-20T09:26:29.908Z,1152.00
2019-06-20T09:27:29.904Z,1092.00
2019-06-20T09:28:29.936Z,1224.00
2019-06-20T09:29:41.327Z,1300.00
2019-06-20T09:30:30.876Z,1296.00
2019-06-20T09:31:29.857Z,1256.00
2019-06-20T09:32:37.451Z,1580.00
2019-06-20T09:33:29.834Z,1236.00
2019-06-20T09:34:29.862Z,1044.00
2019-06-20T09:35:29.813Z,908.00
2019-06-20T09:36:29.815Z,856.00
2019-06-20T09:37:29.793Z,848.00
2019-06-20T09:38:29.805Z,844.00
2019-06-20T09:39:29.770Z,832.00
2019-06-20T09:40:29.811Z,820.00
2019-06-20T09:41:29.750Z,824.00
2019-06-20T09:42:29.770Z,912.00
2019-06-20T09:43:29.750Z,816.00
2019-06-20T09:44:29.741Z,776.00
2019-06-20T09:45:29.743Z,756.00
2019-06-20T09:46:29.742Z,740.00
2019-06-20T09:47:29.689Z,732.00
2019-06-20T09:48:29.778Z,740.00
2019-06-20T09:49:29.685Z,828.00
2019-06-20T09:50:29.659Z,1360.00
2019-06-20T09:51:29.632Z,1364.00
2019-06-20T09:52:29.629Z,1172.00
2019-06-20T09:53:37.183Z,1476.00
2019-06-20T09:54:29.618Z,1064.00
2019-06-20T09:55:29.598Z,992.00
2019-06-20T09:56:29.640Z,1012.00
2019-06-20T09:57:29.608Z,1020.00
2019-06-20T09:58:29.640Z,1096.00
2019-06-20T09:59:29.600Z,1156.00
2019-06-20T10:00:29.581Z,1176.00
2019-06-20T10:01:29.540Z,1260.00
2019-06-20T10:02:29.573Z,1248.00
2019-06-20T10:03:29.520Z,1504.00
2019-06-20T10:04:29.559Z,1376.00
2019-06-20T10:05:29.518Z,1320.00
2019-06-20T10:06:29.574Z,1400.00
2019-06-20T10:07:29.462Z,1360.00
2019-06-20T10:08:29.476Z,1360.00
2019-06-20T10:09:29.560Z,1188.00
2019-06-20T10:10:29.471Z,1452.00
2019-06-20T10:11:29.474Z,1516.00
2019-06-20T10:12:29.438Z,1484.00
2019-06-20T10:13:32.553Z,1208.00
2019-06-20T10:14:29.401Z,1368.00
2019-06-20T10:15:29.426Z,972.00
2019-06-20T10:16:42.430Z,880.00
2019-06-20T10:17:30.365Z,984.00
2019-06-20T10:18:29.363Z,1088.00
2019-06-20T10:19:29.369Z,1040.00
2019-06-20T10:20:29.351Z,952.00
2019-06-20T10:21:29.356Z,964.00
2019-06-20T10:22:29.302Z,992.00
2019-06-20T10:23:29.289Z,1260.00
2019-06-20T10:24:29.324Z,1380.00
2019-06-20T10:25:29.275Z,1272.00
2019-06-20T10:26:29.304Z,1492.00
2019-06-20T10:27:29.258Z,1388.00
2019-06-20T10:28:29.240Z,1192.00
2019-06-20T10:29:29.272Z,1324.00
2019-06-20T10:30:29.225Z,1140.00
2019-06-20T10:31:29.235Z,1072.00
2019-06-20T10:32:29.256Z,1204.00
2019-06-20T10:33:29.285Z,1376.00
2019-06-20T10:34:31.130Z,1184.00
2019-06-20T10:35:29.234Z,1272.00
2019-06-20T10:36:29.177Z,1336.00
2019-06-20T10:37:29.163Z,1400.00
2019-06-20T10:38:29.183Z,1412.00
2019-06-20T10:39:29.160Z,1020.00
2019-06-20T10:40:29.118Z,1332.00
2019-06-20T10:41:29.181Z,1352.00
2019-06-20T10:42:29.118Z,1260.00
2019-06-20T10:43:29.115Z,1504.00
2019-06-20T10:44:29.078Z,1516.00
2019-06-20T10:45:29.362Z,1408.00
2019-06-20T10:46:29.085Z,996.00
2019-06-20T10:47:34.993Z,1056.00
2019-06-20T10:48:30.027Z,1232.00
2019-06-20T10:49:29.040Z,1080.00
2019-06-20T10:50:29.027Z,1100.00
2019-06-20T10:51:28.987Z,1256.00
2019-06-20T10:52:28.995Z,1236.00
2019-06-20T10:53:29.018Z,1260.00
2019-06-20T10:54:28.953Z,1260.00
2019-06-20T10:55:28.978Z,1332.00
2019-06-20T10:56:28.979Z,1316.00
2019-06-20T10:57:28.976Z,1436.00
2019-06-20T10:58:28.950Z,1444.00
2019-06-20T10:59:28.905Z,1464.00
2019-06-20T11:00:31.754Z,1408.00
2019-06-20T11:01:28.921Z,1504.00
2019-06-20T11:02:28.903Z,1416.00
2019-06-20T11:03:28.894Z,1484.00
2019-06-20T11:04:28.922Z,1268.00
2019-06-20T11:05:28.865Z,1448.00
2019-06-20T11:06:28.825Z,1476.00
2019-06-20T11:07:28.816Z,1492.00
2019-06-20T11:08:28.833Z,1140.00
2019-06-20T11:09:28.785Z,976.00
2019-06-20T11:10:28.797Z,968.00
2019-06-20T11:11:28.804Z,956.00
2019-06-20T11:12:42.577Z,936.00
2019-06-20T11:13:29.743Z,960.00
2019-06-20T11:14:28.788Z,888.00
2019-06-20T11:15:28.780Z,856.00
2019-06-20T11:16:28.721Z,804.00
2019-06-20T11:17:28.704Z,772.00
2019-06-20T11:18:28.758Z,748.00
2019-06-20T11:19:28.708Z,752.00
2019-06-20T11:20:28.672Z,784.00
2019-06-20T11:21:28.670Z,1348.00
2019-06-20T11:22:28.654Z,888.00
2019-06-20T11:23:28.644Z,600.00
2019-06-20T11:24:28.708Z,552.00
2019-06-20T11:25:28.634Z,572.00
2019-06-20T11:26:28.644Z,576.00
2019-06-20T11:27:28.640Z,588.00
2019-06-20T11:28:28.591Z,532.00
2019-06-20T11:29:28.569Z,504.00
2019-06-20T11:30:28.594Z,504.00
2019-06-20T11:31:28.578Z,460.00
2019-06-20T11:32:28.584Z,408.00
2019-06-20T11:33:28.560Z,368.00
2019-06-20T11:34:28.530Z,332.00
2019-06-20T11:35:28.612Z,336.00
2019-06-20T11:36:28.552Z,336.00
2019-06-20T11:37:28.483Z,336.00
2019-06-20T11:38:28.473Z,320.00
2019-06-20T11:39:28.481Z,312.00
2019-06-20T11:40:28.535Z,320.00
2019-06-20T11:41:28.473Z,312.00
2019-06-20T11:42:28.445Z,312.00
2019-06-20T11:43:28.436Z,312.00
2019-06-20T11:44:28.462Z,316.00
2019-06-20T11:45:28.470Z,328.00
2019-06-20T11:46:28.411Z,360.00
2019-06-20T11:47:28.383Z,384.00
2019-06-20T11:48:28.383Z,420.00
2019-06-20T11:49:28.385Z,440.00
2019-06-20T11:50:28.369Z,492.00
2019-06-20T11:51:28.360Z,480.00
2019-06-20T11:52:28.334Z,488.00
2019-06-20T11:53:28.309Z,564.00
2019-06-20T11:54:28.320Z,596.00
2019-06-20T11:55:28.358Z,596.00
2019-06-20T11:56:28.314Z,660.00
2019-06-20T11:57:28.282Z,688.00
2019-06-20T11:58:28.258Z,728.00
2019-06-20T11:59:28.274Z,708.00
2019-06-20T12:00:28.340Z,676.00
2019-06-20T12:01:32.927Z,684.00
2019-06-20T12:02:29.217Z,724.00
2019-06-20T12:03:28.231Z,732.00
2019-06-20T12:04:28.197Z,796.00
2019-06-20T12:05:28.189Z,848.00
2019-06-20T12:06:28.193Z,956.00
2019-06-20T12:07:28.215Z,1004.00
2019-06-20T12:08:28.202Z,1136.00
2019-06-20T12:09:28.200Z,1196.00
2019-06-20T12:10:28.134Z,1064.00
2019-06-20T12:11:28.116Z,1084.00
2019-06-20T12:12:28.138Z,1120.00
2019-06-20T12:13:28.096Z,1260.00
2019-06-20T12:14:28.106Z,1180.00
2019-06-20T12:15:28.073Z,1188.00
2019-06-20T12:16:28.065Z,1072.00
2019-06-20T12:17:28.073Z,1024.00
2019-06-20T12:18:28.055Z,940.00
2019-06-20T12:19:28.038Z,832.00
2019-06-20T12:20:28.066Z,800.00
2019-06-20T12:21:28.008Z,740.00
2019-06-20T12:22:28.003Z,744.00
2019-06-20T12:23:28.047Z,688.00
2019-06-20T12:24:28.101Z,664.00
2019-06-20T12:25:28.463Z,596.00
2019-06-20T12:26:27.953Z,544.00
2019-06-20T12:27:27.997Z,500.00
2019-06-20T12:28:27.949Z,472.00
2019-06-20T12:29:27.982Z,492.00
2019-06-20T12:30:27.969Z,484.00
2019-06-20T12:31:27.896Z,488.00
2019-06-20T12:32:27.900Z,484.00
2019-06-20T12:33:27.920Z,476.00
2019-06-20T12:34:27.916Z,484.00
2019-06-20T12:35:27.864Z,472.00
2019-06-20T12:36:27.849Z,460.00
2019-06-20T12:37:27.844Z,488.00
2019-06-20T12:38:27.837Z,508.00
2019-06-20T12:39:27.892Z,544.00
2019-06-20T12:40:35.372Z,616.00
2019-06-20T12:41:27.817Z,736.00
2019-06-20T12:42:27.814Z,776.00
2019-06-20T12:43:27.797Z,760.00
2019-06-20T12:44:27.795Z,652.00
2019-06-20T12:45:27.750Z,584.00
2019-06-20T12:46:27.756Z,540.00
2019-06-20T12:47:27.726Z,508.00
2019-06-20T12:48:27.780Z,476.00
2019-06-20T12:49:27.705Z,432.00
2019-06-20T12:50:27.689Z,412.00
2019-06-20T12:51:27.713Z,388.00
2019-06-20T12:52:27.667Z,352.00
2019-06-20T12:53:27.688Z,332.00
2019-06-20T12:54:30.156Z,304.00
2019-06-20T12:55:27.654Z,268.00
2019-06-20T12:56:27.665Z,252.00
2019-06-20T12:57:27.632Z,244.00
2019-06-20T12:58:27.613Z,232.00
2019-06-20T12:59:27.633Z,248.00
2019-06-20T13:00:27.583Z,284.00
2019-06-20T13:01:39.180Z,296.00
2019-06-20T13:02:28.559Z,304.00
2019-06-20T13:03:27.551Z,332.00
2019-06-20T13:04:27.570Z,324.00
2019-06-20T13:05:27.536Z,328.00
2019-06-20T13:06:27.514Z,324.00
2019-06-20T13:07:27.595Z,356.00
2019-06-20T13:08:27.498Z,320.00
2019-06-20T13:09:35.056Z,296.00
2019-06-20T13:10:27.508Z,280.00
2019-06-20T13:11:27.463Z,244.00
2019-06-20T13:12:27.495Z,236.00
2019-06-20T13:13:27.505Z,232.00
2019-06-20T13:14:27.459Z,240.00
2019-06-20T13:15:27.466Z,260.00
2019-06-20T13:16:27.452Z,272.00
2019-06-20T13:17:27.397Z,280.00
2019-06-20T13:18:27.386Z,296.00
2019-06-20T13:19:27.385Z,308.00
2019-06-20T13:20:27.397Z,328.00
2019-06-20T13:21:27.357Z,352.00
2019-06-20T13:22:27.363Z,376.00
2019-06-20T13:23:27.338Z,412.00
2019-06-20T13:24:27.320Z,404.00
2019-06-20T13:25:27.340Z,420.00
2019-06-20T13:26:27.323Z,428.00
2019-06-20T13:27:27.287Z,452.00
2019-06-20T13:28:27.302Z,460.00
2019-06-20T13:29:27.273Z,456.00
2019-06-20T13:30:27.272Z,448.00
2019-06-20T13:31:27.257Z,444.00
2019-06-20T13:32:27.273Z,444.00
2019-06-20T13:33:27.265Z,448.00
2019-06-20T13:34:27.221Z,452.00
2019-06-20T13:35:27.217Z,508.00
2019-06-20T13:36:27.252Z,540.00
2019-06-20T13:37:27.181Z,520.00
2019-06-20T13:38:27.177Z,532.00
2019-06-20T13:39:27.168Z,540.00
2019-06-20T13:40:27.169Z,592.00
2019-06-20T13:41:27.177Z,628.00
2019-06-20T13:42:27.134Z,624.00
2019-06-20T13:43:27.132Z,656.00
2019-06-20T13:44:27.116Z,704.00
2019-06-20T13:45:27.118Z,716.00
2019-06-20T13:46:27.154Z,764.00
2019-06-20T13:47:27.077Z,820.00
2019-06-20T13:48:27.080Z,892.00
2019-06-20T13:49:27.054Z,1000.00
2019-06-20T13:50:27.073Z,1100.00
2019-06-20T13:51:27.048Z,1156.00
2019-06-20T13:52:27.069Z,1372.00
2019-06-20T13:53:27.013Z,1172.00
2019-06-20T13:54:27.009Z,1228.00
2019-06-20T13:55:27.025Z,1244.00
2019-06-20T13:56:26.981Z,1300.00
2019-06-20T13:57:27.048Z,1288.00
2019-06-20T13:58:26.970Z,1304.00
2019-06-20T13:59:26.956Z,1232.00
2019-06-20T14:00:26.939Z,1100.00
2019-06-20T14:01:26.982Z,1036.00
2019-06-20T14:02:26.948Z,932.00
2019-06-20T14:03:26.910Z,856.00
2019-06-20T14:04:26.893Z,756.00
2019-06-20T14:05:26.883Z,700.00
2019-06-20T14:06:26.918Z,576.00
2019-06-20T14:07:26.888Z,504.00
2019-06-20T14:08:26.863Z,468.00
2019-06-20T14:09:26.840Z,436.00
2019-06-20T14:10:26.870Z,412.00
2019-06-20T14:11:26.856Z,428.00
2019-06-20T14:12:26.840Z,456.00
2019-06-20T14:13:26.801Z,496.00
2019-06-20T14:14:26.807Z,484.00
2019-06-20T14:15:26.775Z,524.00
2019-06-20T14:16:26.789Z,600.00
2019-06-20T14:17:26.764Z,616.00
2019-06-20T14:18:26.772Z,588.00
2019-06-20T14:19:26.799Z,576.00
2019-06-20T14:20:26.745Z,564.00
2019-06-20T14:21:26.714Z,540.00
2019-06-20T14:22:26.701Z,508.00
2019-06-20T14:23:26.746Z,528.00
2019-06-20T14:24:26.680Z,524.00
2019-06-20T14:25:26.694Z,544.00
2019-06-20T14:26:34.230Z,584.00
2019-06-20T14:27:26.665Z,536.00
2019-06-20T14:28:26.660Z,508.00
2019-06-20T14:29:26.636Z,516.00
2019-06-20T14:30:26.617Z,520.00
2019-06-20T14:31:26.603Z,564.00
2019-06-20T14:32:26.608Z,620.00
2019-06-20T14:33:26.689Z,728.00
2019-06-20T14:34:26.573Z,868.00
2019-06-20T14:35:26.561Z,948.00
2019-06-20T14:36:26.597Z,920.00
2019-06-20T14:37:26.542Z,968.00
2019-06-20T14:38:26.584Z,932.00
2019-06-20T14:39:26.548Z,896.00
2019-06-20T14:40:26.539Z,940.00
2019-06-20T14:41:26.508Z,928.00
2019-06-20T14:42:26.487Z,752.00
2019-06-20T14:43:26.523Z,592.00
2019-06-20T14:44:26.492Z,556.00
2019-06-20T14:45:26.457Z,528.00
2019-06-20T14:46:26.447Z,484.00
2019-06-20T14:47:26.436Z,480.00
2019-06-20T14:48:26.451Z,408.00
2019-06-20T14:49:26.496Z,344.00
2019-06-20T14:50:26.459Z,300.00
2019-06-20T14:51:26.393Z,252.00
2019-06-20T14:52:26.422Z,208.00
2019-06-20T14:53:26.418Z,168.00
2019-06-20T14:54:26.394Z,148.00
2019-06-20T14:55:26.353Z,140.00
2019-06-20T14:56:26.385Z,164.00
2019-06-20T14:57:26.329Z,168.00
2019-06-20T14:58:26.315Z,208.00
2019-06-20T14:59:26.351Z,224.00
2019-06-20T15:00:26.329Z,252.00
2019-06-20T15:01:26.349Z,224.00
2019-06-20T15:02:37.862Z,212.00
2019-06-20T15:03:27.300Z,204.00
2019-06-20T15:04:26.286Z,188.00
2019-06-20T15:05:26.300Z,176.00
2019-06-20T15:06:26.231Z,164.00
2019-06-20T15:07:26.242Z,168.00
2019-06-20T15:08:26.221Z,188.00
2019-06-20T15:09:26.237Z,204.00
2019-06-20T15:10:26.198Z,240.00
2019-06-20T15:11:26.205Z,272.00
2019-06-20T15:12:26.196Z,296.00
2019-06-20T15:13:26.181Z,340.00
2019-06-20T15:14:26.217Z,372.00
2019-06-20T15:15:26.137Z,396.00
2019-06-20T15:16:26.130Z,428.00
2019-06-20T15:17:26.132Z,464.00
2019-06-20T15:18:26.105Z,536.00
2019-06-20T15:19:26.123Z,584.00
2019-06-20T15:20:26.085Z,604.00
2019-06-20T15:21:26.127Z,648.00
2019-06-20T15:22:26.078Z,688.00
2019-06-20T15:23:26.088Z,712.00
2019-06-20T15:24:26.091Z,712.00
2019-06-20T15:25:26.058Z,692.00
2019-06-20T15:26:26.058Z,696.00
2019-06-20T15:27:26.069Z,700.00
2019-06-20T15:28:25.987Z,716.00
2019-06-20T15:29:33.645Z,708.00
2019-06-20T15:30:26.072Z,700.00
2019-06-20T15:31:25.961Z,688.00
2019-06-20T15:32:25.964Z,688.00
2019-06-20T15:33:25.961Z,696.00
2019-06-20T15:34:25.952Z,672.00
2019-06-20T15:35:25.947Z,628.00
2019-06-20T15:36:25.938Z,620.00
2019-06-20T15:37:25.943Z,652.00
2019-06-20T15:38:25.921Z,680.00
2019-06-20T15:39:25.895Z,720.00
2019-06-20T15:40:25.909Z,764.00
2019-06-20T15:41:25.974Z,680.00
2019-06-20T15:42:25.852Z,660.00
2019-06-20T15:43:25.839Z,584.00
2019-06-20T15:44:25.833Z,560.00
2019-06-20T15:45:25.875Z,556.00
2019-06-20T15:46:25.877Z,564.00
2019-06-20T15:47:25.798Z,560.00
2019-06-20T15:48:25.780Z,568.00
2019-06-20T15:49:25.775Z,584.00
2019-06-20T15:50:25.802Z,560.00
2019-06-20T15:51:25.833Z,564.00
2019-06-20T15:52:25.738Z,588.00
2019-06-20T15:53:25.731Z,568.00
2019-06-20T15:54:25.711Z,540.00
2019-06-20T15:55:25.709Z,512.00
2019-06-20T15:56:25.758Z,464.00
2019-06-20T15:57:25.718Z,424.00
2019-06-20T15:58:33.249Z,380.00
2019-06-20T15:59:25.682Z,372.00
2019-06-20T16:00:25.694Z,368.00
2019-06-20T16:01:25.681Z,380.00
2019-06-20T16:02:25.667Z,384.00
2019-06-20T16:03:25.639Z,388.00
2019-06-20T16:04:25.641Z,404.00
2019-06-20T16:05:25.646Z,420.00
2019-06-20T16:06:25.589Z,404.00
2019-06-20T16:07:27.158Z,384.00
2019-06-20T16:08:25.565Z,380.00
2019-06-20T16:09:25.585Z,376.00
2019-06-20T16:10:25.563Z,376.00
2019-06-20T16:11:25.803Z,384.00
2019-06-20T16:12:25.523Z,388.00
2019-06-20T16:13:25.521Z,388.00
2019-06-20T16:14:25.722Z,396.00
2019-06-20T16:15:25.494Z,408.00
2019-06-20T16:16:25.514Z,408.00
2019-06-20T16:17:25.490Z,396.00
2019-06-20T16:18:25.458Z,392.00
2019-06-20T16:19:25.488Z,376.00
2019-06-20T16:20:25.435Z,364.00
2019-06-20T16:21:25.426Z,348.00
2019-06-20T16:22:25.459Z,332.00
2019-06-20T16:23:25.433Z,324.00
2019-06-20T16:24:25.494Z,312.00
2019-06-20T16:25:25.394Z,296.00
2019-06-20T16:26:25.384Z,284.00
2019-06-20T16:27:25.362Z,284.00
2019-06-20T16:28:25.441Z,288.00
2019-06-20T16:29:25.340Z,300.00
2019-06-20T16:30:25.360Z,308.00
2019-06-20T16:31:27.031Z,316.00
2019-06-20T16:32:25.343Z,312.00
2019-06-20T16:33:25.922Z,316.00
2019-06-20T16:34:25.289Z,324.00
2019-06-20T16:35:25.277Z,332.00
2019-06-20T16:36:25.332Z,364.00
2019-06-20T16:37:25.285Z,388.00
2019-06-20T16:38:25.243Z,400.00
2019-06-20T16:39:25.238Z,412.00
2019-06-20T16:40:25.249Z,428.00
2019-06-20T16:41:25.250Z,448.00
2019-06-20T16:42:25.221Z,444.00
2019-06-20T16:43:25.221Z,432.00
2019-06-20T16:44:25.190Z,432.00
2019-06-20T16:45:25.173Z,428.00
2019-06-20T16:46:25.182Z,416.00
2019-06-20T16:47:25.185Z,420.00
2019-06-20T16:48:25.185Z,412.00
2019-06-20T16:49:25.133Z,412.00
2019-06-20T16:50:25.156Z,400.00
2019-06-20T16:51:25.102Z,408.00
2019-06-20T16:52:25.127Z,392.00
2019-06-20T16:53:25.092Z,384.00
2019-06-20T16:54:25.104Z,380.00
2019-06-20T16:55:25.092Z,372.00
2019-06-20T16:56:25.084Z,372.00
2019-06-20T16:57:25.048Z,376.00
2019-06-20T16:58:25.035Z,384.00
2019-06-20T16:59:25.143Z,400.00
2019-06-20T17:00:25.017Z,424.00
2019-06-20T17:01:25.070Z,448.00
2019-06-20T17:02:25.004Z,464.00
2019-06-20T17:03:38.052Z,508.00
2019-06-20T17:04:26.057Z,540.00
2019-06-20T17:05:25.008Z,600.00
2019-06-20T17:06:24.950Z,656.00
2019-06-20T17:07:24.954Z,644.00
2019-06-20T17:08:24.936Z,668.00
2019-06-20T17:09:24.921Z,680.00
2019-06-20T17:10:24.982Z,2264.00
2019-06-20T17:11:24.895Z,892.00
2019-06-20T17:12:24.893Z,528.00
2019-06-20T17:13:24.899Z,464.00
2019-06-20T17:14:24.890Z,452.00
2019-06-20T17:15:24.933Z,464.00
2019-06-20T17:16:24.844Z,432.00
2019-06-20T17:17:24.864Z,412.00
2019-06-20T17:18:24.830Z,440.00
2019-06-20T17:19:24.811Z,460.00
2019-06-20T17:20:24.806Z,436.00
2019-06-20T17:21:24.789Z,496.00
2019-06-20T17:22:24.808Z,1016.00
2019-06-20T17:23:24.795Z,2368.00
2019-06-20T17:24:24.759Z,2308.00
2019-06-20T17:25:24.783Z,2272.00
2019-06-20T17:26:24.780Z,2168.00
2019-06-20T17:27:24.781Z,436.00
2019-06-20T17:28:24.793Z,396.00
2019-06-20T17:29:24.716Z,384.00
2019-06-20T17:30:24.693Z,368.00
2019-06-20T17:31:24.723Z,364.00
2019-06-20T17:32:24.697Z,376.00
2019-06-20T17:33:24.662Z,388.00
2019-06-20T17:34:24.681Z,400.00
2019-06-20T17:35:24.686Z,412.00
2019-06-20T17:36:24.656Z,444.00
2019-06-20T17:37:24.708Z,632.00
2019-06-20T17:38:24.612Z,580.00
2019-06-20T17:39:24.803Z,1000.00
2019-06-20T17:40:24.589Z,1840.00
2019-06-20T17:41:24.578Z,1836.00
2019-06-20T17:42:24.579Z,1800.00
2019-06-20T17:43:24.595Z,1816.00
2019-06-20T17:44:27.338Z,1784.00
2019-06-20T17:45:24.549Z,1560.00
2019-06-20T17:46:24.538Z,1384.00
2019-06-20T17:47:24.553Z,1616.00
2019-06-20T17:48:24.533Z,1380.00
2019-06-20T17:49:24.507Z,1468.00
2019-06-20T17:50:25.879Z,1396.00
2019-06-20T17:51:24.481Z,1460.00
2019-06-20T17:52:24.497Z,624.00
2019-06-20T17:53:24.487Z,680.00
2019-06-20T17:54:24.444Z,536.00
2019-06-20T17:55:24.467Z,676.00
2019-06-20T17:56:24.439Z,908.00
2019-06-20T17:57:24.411Z,860.00
2019-06-20T17:58:24.430Z,352.00
2019-06-20T17:59:24.389Z,424.00
2019-06-20T18:00:24.405Z,308.00
2019-06-20T18:01:24.402Z,300.00
2019-06-20T18:02:24.358Z,280.00
2019-06-20T18:03:24.366Z,264.00
2019-06-20T18:04:26.778Z,252.00
2019-06-20T18:05:24.402Z,236.00
2019-06-20T18:06:24.341Z,220.00
2019-06-20T18:07:24.437Z,208.00
2019-06-20T18:08:24.293Z,200.00
2019-06-20T18:09:31.900Z,196.00
2019-06-20T18:10:24.330Z,188.00
2019-06-20T18:11:24.258Z,184.00
2019-06-20T18:12:24.250Z,184.00
2019-06-20T18:13:24.254Z,176.00
2019-06-20T18:14:24.249Z,168.00
2019-06-20T18:15:24.262Z,168.00
2019-06-20T18:16:25.513Z,164.00
2019-06-20T18:17:24.199Z,160.00
2019-06-20T18:18:24.234Z,156.00
2019-06-20T18:19:24.205Z,156.00
2019-06-20T18:20:24.185Z,148.00